NBEK1: Neosho R at Burlingame Rd nr Emporia KS

                                SHEF ID:       NBEK1     NEOSHO R AT BURLINGAME RD NR EMP
STATION TYPE:

PRECIP STAGE STAGE(2) RIV-FLOW BAT-LOAD
in ft ft cfs volt
Ccp-Rev Ccp-Rev Ccp-Rev Ccp-Rev Ccp-Rev
(America/Chicago)
04/25 00:00 0.00 5.25 4.26 595 12.44
04/25 01:00 0.00 5.18 4.23 565 12.40
04/25 02:00 0.00 5.12 4.20 540 12.40
04/25 03:00 0.00 5.06 4.18 516 12.37
04/25 04:00 0.00 5.00 4.16 492 12.34
04/25 05:00 0.00 4.94 4.14 466 12.32
04/25 06:00 0.00 4.87 4.12 436 12.27
04/25 07:00 0.00 4.82 4.11 416 12.24
04/25 08:00 0.00 4.77 4.08 396 12.24
04/25 09:00 0.00 4.73 4.07 380 12.27
04/25 10:00 0.00 4.69 4.05 365 13.02
04/25 11:00 0.00 4.65 4.05 350 13.06
04/25 12:00 0.00 4.62 4.03 339 12.93
04/25 13:00 0.00 4.58 4.02 324 12.73
04/25 14:00 0.00 4.55 4.01 314 12.70
04/25 15:00 0.00 4.52 4.00 303 12.67
04/25 16:00 0.00 4.49 3.99 293 12.71
04/25 17:00 0.00 4.46 3.98 283 12.67
04/25 18:00 0.00 4.43 3.98 273 12.63
04/25 19:00 0.00 4.41 3.96 267 12.59
04/25 20:00 0.00 4.39 3.96 260 12.54
04/25 21:00 0.00 4.36 3.96 251 12.52
04/25 22:00 0.00 4.34 3.95 245 11.96
04/25 23:00 0.00 4.32 3.94 239 12.47
Data processed at Sun 26Apr2026 04:36 GMT

NOTICE: If you are parsing this page

Please convert to using our Data API. Starting early 2026 we will be migrating to: https://water.usace.army.mil with modern pages rendered in JavaScript. When this migration completes you will no longer be able to scrape this page! CWMSDataAPI (CDA)

Timeseries IDs (TSIDs)

TSIDs used from left to right in the data table
EMPO.Precip-Inc.Total.1Hour.1Hour.Ccp-Rev
EMPO.Stage.Inst.1Hour.0.Ccp-Rev
EMPO.Stage-Alt.Inst.1Hour.0.Ccp-Rev
EMPO.Flow.Inst.1Hour.0.Ccp-Rev
EMPO.Volt-Battery Load.Inst.1Hour.0.Ccp-Rev

                            

All information presented herein is the property of the government of the United States of America and may be revised or deleted at any time without prior notice. Dissemination of this information without the expressed written consent of the Public Affairs Office, Tulsa District U.S. Army Corps of Engineers is strictly prohibited. These data are gathered electronically and, as presented, have NOT undergone any form of quality control. These data are NOT guaranteed to be valid or correct.